sensor_id;sensor_type;location;lat;lon;timestamp;P1;durP1;ratioP1;P2;durP2;ratioP2
45650;SDS011;31365;48.858;8.530;2024-01-06T00:00:07;2.90;;;2.57;;
45650;SDS011;31365;48.858;8.530;2024-01-06T00:02:37;4.57;;;2.83;;
45650;SDS011;31365;48.858;8.530;2024-01-06T00:05:07;3.50;;;2.30;;
45650;SDS011;31365;48.858;8.530;2024-01-06T00:07:35;6.67;;;2.83;;
45650;SDS011;31365;48.858;8.530;2024-01-06T00:10:04;3.13;;;2.17;;
45650;SDS011;31365;48.858;8.530;2024-01-06T00:12:33;3.00;;;2.40;;
45650;SDS011;31365;48.858;8.530;2024-01-06T00:15:02;2.83;;;2.53;;
45650;SDS011;31365;48.858;8.530;2024-01-06T00:17:32;3.30;;;2.30;;
45650;SDS011;31365;48.858;8.530;2024-01-06T00:20:00;2.93;;;2.60;;
45650;SDS011;31365;48.858;8.530;2024-01-06T00:22:32;5.03;;;3.03;;
45650;SDS011;31365;48.858;8.530;2024-01-06T00:25:02;4.03;;;2.40;;
45650;SDS011;31365;48.858;8.530;2024-01-06T00:27:30;3.30;;;2.40;;
45650;SDS011;31365;48.858;8.530;2024-01-06T00:29:59;4.83;;;2.67;;
45650;SDS011;31365;48.858;8.530;2024-01-06T00:32:27;5.53;;;2.37;;
45650;SDS011;31365;48.858;8.530;2024-01-06T00:34:56;5.70;;;2.63;;
45650;SDS011;31365;48.858;8.530;2024-01-06T00:37:25;3.40;;;2.50;;
45650;SDS011;31365;48.858;8.530;2024-01-06T00:39:55;6.87;;;2.70;;
45650;SDS011;31365;48.858;8.530;2024-01-06T00:42:23;5.10;;;2.23;;
45650;SDS011;31365;48.858;8.530;2024-01-06T00:44:51;4.10;;;3.03;;
45650;SDS011;31365;48.858;8.530;2024-01-06T00:47:20;3.53;;;2.40;;
45650;SDS011;31365;48.858;8.530;2024-01-06T00:49:51;4.57;;;2.40;;
45650;SDS011;31365;48.858;8.530;2024-01-06T00:52:19;6.80;;;3.10;;
45650;SDS011;31365;48.858;8.530;2024-01-06T00:54:48;6.33;;;3.20;;
45650;SDS011;31365;48.858;8.530;2024-01-06T00:57:17;6.30;;;2.90;;
45650;SDS011;31365;48.858;8.530;2024-01-06T00:59:51;5.17;;;3.30;;
45650;SDS011;31365;48.858;8.530;2024-01-06T01:02:19;5.83;;;2.97;;
45650;SDS011;31365;48.858;8.530;2024-01-06T01:04:47;4.60;;;2.67;;
45650;SDS011;31365;48.858;8.530;2024-01-06T01:07:15;6.70;;;2.77;;
45650;SDS011;31365;48.858;8.530;2024-01-06T01:09:43;4.60;;;2.83;;
45650;SDS011;31365;48.858;8.530;2024-01-06T01:12:12;4.47;;;2.43;;
45650;SDS011;31365;48.858;8.530;2024-01-06T01:14:42;4.63;;;2.30;;
45650;SDS011;31365;48.858;8.530;2024-01-06T01:17:10;7.70;;;2.67;;
45650;SDS011;31365;48.858;8.530;2024-01-06T01:19:38;3.93;;;2.43;;
45650;SDS011;31365;48.858;8.530;2024-01-06T01:22:07;5.73;;;2.87;;
45650;SDS011;31365;48.858;8.530;2024-01-06T01:24:35;5.43;;;3.37;;
45650;SDS011;31365;48.858;8.530;2024-01-06T01:27:04;6.97;;;2.80;;
45650;SDS011;31365;48.858;8.530;2024-01-06T01:29:32;3.53;;;2.40;;
45650;SDS011;31365;48.858;8.530;2024-01-06T01:32:02;4.60;;;2.47;;
45650;SDS011;31365;48.858;8.530;2024-01-06T01:34:32;5.63;;;3.07;;
45650;SDS011;31365;48.858;8.530;2024-01-06T01:37:01;4.23;;;2.63;;
45650;SDS011;31365;48.858;8.530;2024-01-06T01:39:29;6.43;;;2.90;;
45650;SDS011;31365;48.858;8.530;2024-01-06T01:41:58;4.23;;;2.80;;
45650;SDS011;31365;48.858;8.530;2024-01-06T01:44:26;6.60;;;2.60;;
45650;SDS011;31365;48.858;8.530;2024-01-06T01:46:54;6.17;;;3.00;;
45650;SDS011;31365;48.858;8.530;2024-01-06T01:49:24;4.73;;;2.90;;
45650;SDS011;31365;48.858;8.530;2024-01-06T01:51:53;7.07;;;3.20;;
45650;SDS011;31365;48.858;8.530;2024-01-06T01:54:22;3.83;;;2.63;;
45650;SDS011;31365;48.858;8.530;2024-01-06T01:56:52;3.27;;;2.63;;
45650;SDS011;31365;48.858;8.530;2024-01-06T01:59:21;4.90;;;2.80;;
45650;SDS011;31365;48.858;8.530;2024-01-06T02:01:49;2.90;;;2.57;;
45650;SDS011;31365;48.858;8.530;2024-01-06T02:04:18;7.33;;;2.83;;
45650;SDS011;31365;48.858;8.530;2024-01-06T02:06:47;5.03;;;2.47;;
45650;SDS011;31365;48.858;8.530;2024-01-06T02:09:16;5.03;;;2.30;;
45650;SDS011;31365;48.858;8.530;2024-01-06T02:11:44;3.37;;;2.27;;
45650;SDS011;31365;48.858;8.530;2024-01-06T02:14:12;4.00;;;2.60;;
45650;SDS011;31365;48.858;8.530;2024-01-06T02:16:40;4.50;;;2.50;;
45650;SDS011;31365;48.858;8.530;2024-01-06T02:19:08;6.60;;;2.83;;
45650;SDS011;31365;48.858;8.530;2024-01-06T02:21:41;3.20;;;2.30;;
45650;SDS011;31365;48.858;8.530;2024-01-06T02:24:12;4.00;;;2.43;;
45650;SDS011;31365;48.858;8.530;2024-01-06T02:26:41;3.73;;;2.47;;
45650;SDS011;31365;48.858;8.530;2024-01-06T02:29:09;6.03;;;2.80;;
45650;SDS011;31365;48.858;8.530;2024-01-06T02:31:37;4.67;;;2.43;;
45650;SDS011;31365;48.858;8.530;2024-01-06T02:34:06;4.30;;;2.63;;
45650;SDS011;31365;48.858;8.530;2024-01-06T02:36:34;5.27;;;2.77;;
45650;SDS011;31365;48.858;8.530;2024-01-06T02:39:03;6.47;;;2.67;;
45650;SDS011;31365;48.858;8.530;2024-01-06T02:41:34;4.43;;;2.30;;
45650;SDS011;31365;48.858;8.530;2024-01-06T02:44:06;2.43;;;2.23;;
45650;SDS011;31365;48.858;8.530;2024-01-06T02:46:39;5.57;;;2.70;;
45650;SDS011;31365;48.858;8.530;2024-01-06T02:49:07;4.60;;;2.60;;
45650;SDS011;31365;48.858;8.530;2024-01-06T02:51:36;4.50;;;2.37;;
45650;SDS011;31365;48.858;8.530;2024-01-06T02:54:05;5.73;;;2.20;;
45650;SDS011;31365;48.858;8.530;2024-01-06T02:56:34;3.90;;;2.33;;
45650;SDS011;31365;48.858;8.530;2024-01-06T02:59:05;4.23;;;2.50;;
45650;SDS011;31365;48.858;8.530;2024-01-06T03:01:33;7.67;;;2.63;;
45650;SDS011;31365;48.858;8.530;2024-01-06T03:04:01;5.37;;;2.40;;
45650;SDS011;31365;48.858;8.530;2024-01-06T03:06:31;2.67;;;2.20;;
45650;SDS011;31365;48.858;8.530;2024-01-06T03:09:01;4.37;;;2.40;;
45650;SDS011;31365;48.858;8.530;2024-01-06T03:11:29;2.77;;;2.33;;
45650;SDS011;31365;48.858;8.530;2024-01-06T03:13:58;3.80;;;2.53;;
45650;SDS011;31365;48.858;8.530;2024-01-06T03:16:27;5.80;;;3.10;;
45650;SDS011;31365;48.858;8.530;2024-01-06T03:18:55;5.37;;;2.17;;
45650;SDS011;31365;48.858;8.530;2024-01-06T03:21:24;6.43;;;2.63;;
45650;SDS011;31365;48.858;8.530;2024-01-06T03:23:53;2.60;;;2.37;;
45650;SDS011;31365;48.858;8.530;2024-01-06T03:26:22;3.13;;;2.43;;
45650;SDS011;31365;48.858;8.530;2024-01-06T03:28:50;3.67;;;2.27;;
45650;SDS011;31365;48.858;8.530;2024-01-06T03:31:20;3.20;;;2.80;;
45650;SDS011;31365;48.858;8.530;2024-01-06T03:33:49;5.93;;;2.70;;
45650;SDS011;31365;48.858;8.530;2024-01-06T03:36:20;3.30;;;2.70;;
45650;SDS011;31365;48.858;8.530;2024-01-06T03:38:48;4.43;;;2.50;;
45650;SDS011;31365;48.858;8.530;2024-01-06T03:41:17;6.03;;;2.83;;
45650;SDS011;31365;48.858;8.530;2024-01-06T03:43:45;3.27;;;2.77;;
45650;SDS011;31365;48.858;8.530;2024-01-06T03:46:13;3.77;;;2.70;;
45650;SDS011;31365;48.858;8.530;2024-01-06T03:48:43;5.80;;;2.47;;
45650;SDS011;31365;48.858;8.530;2024-01-06T03:51:12;3.73;;;2.60;;
45650;SDS011;31365;48.858;8.530;2024-01-06T03:53:40;4.63;;;2.50;;
45650;SDS011;31365;48.858;8.530;2024-01-06T03:56:08;5.13;;;2.70;;
45650;SDS011;31365;48.858;8.530;2024-01-06T03:58:36;4.97;;;2.90;;
45650;SDS011;31365;48.858;8.530;2024-01-06T04:01:05;4.93;;;2.40;;
45650;SDS011;31365;48.858;8.530;2024-01-06T04:03:33;2.93;;;2.73;;
45650;SDS011;31365;48.858;8.530;2024-01-06T04:06:03;4.77;;;2.70;;
45650;SDS011;31365;48.858;8.530;2024-01-06T04:08:32;2.80;;;2.50;;
45650;SDS011;31365;48.858;8.530;2024-01-06T04:11:00;5.03;;;2.73;;
45650;SDS011;31365;48.858;8.530;2024-01-06T04:13:28;3.33;;;2.47;;
45650;SDS011;31365;48.858;8.530;2024-01-06T04:15:57;3.80;;;2.57;;
45650;SDS011;31365;48.858;8.530;2024-01-06T04:18:25;6.27;;;3.43;;
45650;SDS011;31365;48.858;8.530;2024-01-06T04:20:54;5.13;;;2.77;;
45650;SDS011;31365;48.858;8.530;2024-01-06T04:23:23;6.70;;;2.87;;
45650;SDS011;31365;48.858;8.530;2024-01-06T04:25:52;6.80;;;2.80;;
45650;SDS011;31365;48.858;8.530;2024-01-06T04:28:20;3.83;;;2.80;;
45650;SDS011;31365;48.858;8.530;2024-01-06T04:30:49;3.53;;;2.47;;
45650;SDS011;31365;48.858;8.530;2024-01-06T04:33:19;4.03;;;2.50;;
45650;SDS011;31365;48.858;8.530;2024-01-06T04:35:47;2.93;;;2.70;;
45650;SDS011;31365;48.858;8.530;2024-01-06T04:38:16;7.63;;;3.37;;
45650;SDS011;31365;48.858;8.530;2024-01-06T04:40:46;5.23;;;3.03;;
45650;SDS011;31365;48.858;8.530;2024-01-06T04:43:14;4.70;;;3.10;;
45650;SDS011;31365;48.858;8.530;2024-01-06T04:45:42;4.17;;;2.80;;
45650;SDS011;31365;48.858;8.530;2024-01-06T04:48:11;4.97;;;2.70;;
45650;SDS011;31365;48.858;8.530;2024-01-06T04:50:39;7.30;;;3.90;;
45650;SDS011;31365;48.858;8.530;2024-01-06T04:53:08;5.50;;;3.00;;
45650;SDS011;31365;48.858;8.530;2024-01-06T04:55:36;4.73;;;3.23;;
45650;SDS011;31365;48.858;8.530;2024-01-06T04:58:06;5.63;;;3.23;;
45650;SDS011;31365;48.858;8.530;2024-01-06T05:00:34;4.07;;;2.90;;
45650;SDS011;31365;48.858;8.530;2024-01-06T05:03:03;3.13;;;2.80;;
45650;SDS011;31365;48.858;8.530;2024-01-06T05:05:32;4.80;;;2.83;;
45650;SDS011;31365;48.858;8.530;2024-01-06T05:08:00;6.03;;;2.70;;
45650;SDS011;31365;48.858;8.530;2024-01-06T05:10:29;3.77;;;3.00;;
45650;SDS011;31365;48.858;8.530;2024-01-06T05:12:58;5.47;;;4.60;;
45650;SDS011;31365;48.858;8.530;2024-01-06T05:15:27;4.83;;;3.93;;
45650;SDS011;31365;48.858;8.530;2024-01-06T05:17:55;3.70;;;3.03;;
45650;SDS011;31365;48.858;8.530;2024-01-06T05:20:24;6.87;;;3.40;;
45650;SDS011;31365;48.858;8.530;2024-01-06T05:22:52;4.57;;;2.80;;
45650;SDS011;31365;48.858;8.530;2024-01-06T05:25:21;3.87;;;2.60;;
45650;SDS011;31365;48.858;8.530;2024-01-06T05:27:49;3.57;;;2.73;;
45650;SDS011;31365;48.858;8.530;2024-01-06T05:30:18;3.07;;;2.20;;
45650;SDS011;31365;48.858;8.530;2024-01-06T05:32:47;4.87;;;2.50;;
45650;SDS011;31365;48.858;8.530;2024-01-06T05:35:16;3.77;;;2.60;;
45650;SDS011;31365;48.858;8.530;2024-01-06T05:37:44;4.27;;;2.80;;
45650;SDS011;31365;48.858;8.530;2024-01-06T05:40:12;3.60;;;2.60;;
45650;SDS011;31365;48.858;8.530;2024-01-06T05:42:41;3.33;;;2.57;;
45650;SDS011;31365;48.858;8.530;2024-01-06T05:45:10;4.03;;;2.90;;
45650;SDS011;31365;48.858;8.530;2024-01-06T05:47:39;3.43;;;2.73;;
45650;SDS011;31365;48.858;8.530;2024-01-06T05:50:10;4.43;;;2.40;;
45650;SDS011;31365;48.858;8.530;2024-01-06T05:52:38;3.10;;;2.80;;
45650;SDS011;31365;48.858;8.530;2024-01-06T05:55:06;2.60;;;2.40;;
45650;SDS011;31365;48.858;8.530;2024-01-06T05:57:36;4.63;;;3.10;;
45650;SDS011;31365;48.858;8.530;2024-01-06T06:00:07;4.17;;;2.70;;
45650;SDS011;31365;48.858;8.530;2024-01-06T06:02:40;3.80;;;2.50;;
45650;SDS011;31365;48.858;8.530;2024-01-06T06:05:10;3.33;;;2.77;;
45650;SDS011;31365;48.858;8.530;2024-01-06T06:07:37;3.40;;;2.27;;
45650;SDS011;31365;48.858;8.530;2024-01-06T06:10:07;3.47;;;2.60;;
45650;SDS011;31365;48.858;8.530;2024-01-06T06:12:37;5.30;;;3.20;;
45650;SDS011;31365;48.858;8.530;2024-01-06T06:15:07;3.87;;;2.37;;
45650;SDS011;31365;48.858;8.530;2024-01-06T06:17:35;5.70;;;2.57;;
45650;SDS011;31365;48.858;8.530;2024-01-06T06:20:04;2.20;;;2.10;;
45650;SDS011;31365;48.858;8.530;2024-01-06T06:22:34;2.00;;;1.80;;
45650;SDS011;31365;48.858;8.530;2024-01-06T06:25:03;4.13;;;2.40;;
45650;SDS011;31365;48.858;8.530;2024-01-06T06:27:32;2.27;;;2.10;;
45650;SDS011;31365;48.858;8.530;2024-01-06T06:30:02;3.10;;;1.90;;
45650;SDS011;31365;48.858;8.530;2024-01-06T06:32:31;2.17;;;1.90;;
45650;SDS011;31365;48.858;8.530;2024-01-06T06:35:00;2.53;;;2.07;;
45650;SDS011;31365;48.858;8.530;2024-01-06T06:37:29;2.30;;;2.10;;
45650;SDS011;31365;48.858;8.530;2024-01-06T06:39:59;4.30;;;2.03;;
45650;SDS011;31365;48.858;8.530;2024-01-06T06:42:27;1.80;;;1.70;;
45650;SDS011;31365;48.858;8.530;2024-01-06T06:44:56;2.40;;;2.00;;
45650;SDS011;31365;48.858;8.530;2024-01-06T06:47:24;1.90;;;1.80;;
45650;SDS011;31365;48.858;8.530;2024-01-06T06:49:52;2.90;;;2.00;;
45650;SDS011;31365;48.858;8.530;2024-01-06T06:52:21;2.20;;;1.97;;
45650;SDS011;31365;48.858;8.530;2024-01-06T06:54:49;5.47;;;2.23;;
45650;SDS011;31365;48.858;8.530;2024-01-06T06:57:20;2.60;;;1.97;;
45650;SDS011;31365;48.858;8.530;2024-01-06T06:59:50;2.33;;;2.00;;
45650;SDS011;31365;48.858;8.530;2024-01-06T07:02:18;2.30;;;2.10;;
45650;SDS011;31365;48.858;8.530;2024-01-06T07:04:47;1.93;;;1.83;;
45650;SDS011;31365;48.858;8.530;2024-01-06T07:07:15;2.00;;;1.80;;
45650;SDS011;31365;48.858;8.530;2024-01-06T07:09:43;2.83;;;2.00;;
45650;SDS011;31365;48.858;8.530;2024-01-06T07:12:12;2.07;;;1.87;;
45650;SDS011;31365;48.858;8.530;2024-01-06T07:14:41;4.50;;;2.10;;
45650;SDS011;31365;48.858;8.530;2024-01-06T07:17:10;2.03;;;1.83;;
45650;SDS011;31365;48.858;8.530;2024-01-06T07:19:38;2.57;;;1.97;;
45650;SDS011;31365;48.858;8.530;2024-01-06T07:22:07;2.60;;;2.07;;
45650;SDS011;31365;48.858;8.530;2024-01-06T07:24:35;3.70;;;1.80;;
45650;SDS011;31365;48.858;8.530;2024-01-06T07:27:03;2.50;;;1.80;;
45650;SDS011;31365;48.858;8.530;2024-01-06T07:29:31;2.77;;;2.20;;
45650;SDS011;31365;48.858;8.530;2024-01-06T07:32:01;2.47;;;1.90;;
45650;SDS011;31365;48.858;8.530;2024-01-06T07:34:30;2.27;;;2.07;;
45650;SDS011;31365;48.858;8.530;2024-01-06T07:36:58;4.40;;;2.33;;
45650;SDS011;31365;48.858;8.530;2024-01-06T07:39:28;2.20;;;2.00;;
45650;SDS011;31365;48.858;8.530;2024-01-06T07:41:56;2.93;;;2.67;;
45650;SDS011;31365;48.858;8.530;2024-01-06T07:44:25;2.23;;;2.03;;
45650;SDS011;31365;48.858;8.530;2024-01-06T07:46:53;2.13;;;2.00;;
45650;SDS011;31365;48.858;8.530;2024-01-06T07:49:22;3.67;;;2.40;;
45650;SDS011;31365;48.858;8.530;2024-01-06T07:51:51;2.90;;;2.20;;
45650;SDS011;31365;48.858;8.530;2024-01-06T07:54:20;5.97;;;3.40;;
45650;SDS011;31365;48.858;8.530;2024-01-06T07:56:48;3.30;;;3.00;;
45650;SDS011;31365;48.858;8.530;2024-01-06T07:59:16;2.70;;;2.50;;
45650;SDS011;31365;48.858;8.530;2024-01-06T08:01:44;4.30;;;2.80;;
45650;SDS011;31365;48.858;8.530;2024-01-06T08:04:12;6.50;;;4.57;;
45650;SDS011;31365;48.858;8.530;2024-01-06T08:06:42;3.37;;;3.00;;
45650;SDS011;31365;48.858;8.530;2024-01-06T08:09:11;4.87;;;3.17;;
45650;SDS011;31365;48.858;8.530;2024-01-06T08:11:39;3.93;;;2.90;;
45650;SDS011;31365;48.858;8.530;2024-01-06T08:14:09;4.70;;;4.30;;
45650;SDS011;31365;48.858;8.530;2024-01-06T08:16:37;3.20;;;3.00;;
45650;SDS011;31365;48.858;8.530;2024-01-06T08:19:05;4.90;;;2.90;;
45650;SDS011;31365;48.858;8.530;2024-01-06T08:21:33;3.30;;;3.00;;
45650;SDS011;31365;48.858;8.530;2024-01-06T08:24:03;3.10;;;2.83;;
45650;SDS011;31365;48.858;8.530;2024-01-06T08:26:32;7.47;;;4.37;;
45650;SDS011;31365;48.858;8.530;2024-01-06T08:29:01;4.07;;;3.77;;
45650;SDS011;31365;48.858;8.530;2024-01-06T08:31:29;4.37;;;3.17;;
45650;SDS011;31365;48.858;8.530;2024-01-06T08:33:58;2.73;;;2.50;;
45650;SDS011;31365;48.858;8.530;2024-01-06T08:36:26;3.43;;;2.87;;
45650;SDS011;31365;48.858;8.530;2024-01-06T08:38:54;2.60;;;2.40;;
45650;SDS011;31365;48.858;8.530;2024-01-06T08:41:24;3.37;;;2.90;;
45650;SDS011;31365;48.858;8.530;2024-01-06T08:43:53;3.60;;;3.20;;
45650;SDS011;31365;48.858;8.530;2024-01-06T08:46:21;3.30;;;3.00;;
45650;SDS011;31365;48.858;8.530;2024-01-06T08:48:49;3.40;;;3.10;;
45650;SDS011;31365;48.858;8.530;2024-01-06T08:51:18;4.13;;;3.23;;
45650;SDS011;31365;48.858;8.530;2024-01-06T08:53:47;3.10;;;2.90;;
45650;SDS011;31365;48.858;8.530;2024-01-06T08:56:15;3.27;;;2.97;;
45650;SDS011;31365;48.858;8.530;2024-01-06T08:58:45;5.23;;;3.80;;
45650;SDS011;31365;48.858;8.530;2024-01-06T09:01:15;2.87;;;2.67;;
45650;SDS011;31365;48.858;8.530;2024-01-06T09:03:44;5.47;;;3.63;;
45650;SDS011;31365;48.858;8.530;2024-01-06T09:06:13;2.97;;;2.77;;
45650;SDS011;31365;48.858;8.530;2024-01-06T09:08:41;3.50;;;3.20;;
45650;SDS011;31365;48.858;8.530;2024-01-06T09:11:10;2.90;;;2.70;;
45650;SDS011;31365;48.858;8.530;2024-01-06T09:13:38;4.43;;;4.03;;
45650;SDS011;31365;48.858;8.530;2024-01-06T09:16:08;2.83;;;2.63;;
45650;SDS011;31365;48.858;8.530;2024-01-06T09:18:36;3.03;;;2.83;;
45650;SDS011;31365;48.858;8.530;2024-01-06T09:21:05;2.97;;;2.60;;
45650;SDS011;31365;48.858;8.530;2024-01-06T09:23:34;2.97;;;2.60;;
45650;SDS011;31365;48.858;8.530;2024-01-06T09:26:02;3.03;;;2.83;;
45650;SDS011;31365;48.858;8.530;2024-01-06T09:28:31;2.77;;;2.57;;
45650;SDS011;31365;48.858;8.530;2024-01-06T09:31:00;2.93;;;2.50;;
45650;SDS011;31365;48.858;8.530;2024-01-06T09:33:30;2.40;;;2.20;;
45650;SDS011;31365;48.858;8.530;2024-01-06T09:36:01;2.90;;;2.30;;
45650;SDS011;31365;48.858;8.530;2024-01-06T09:38:29;2.80;;;2.50;;
45650;SDS011;31365;48.858;8.530;2024-01-06T09:40:58;3.80;;;2.57;;
45650;SDS011;31365;48.858;8.530;2024-01-06T09:43:26;4.33;;;2.77;;
45650;SDS011;31365;48.858;8.530;2024-01-06T09:45:58;3.87;;;3.57;;
45650;SDS011;31365;48.858;8.530;2024-01-06T09:48:40;5.00;;;4.27;;
45650;SDS011;31365;48.858;8.530;2024-01-06T09:51:09;4.20;;;3.90;;
45650;SDS011;31365;48.858;8.530;2024-01-06T09:53:41;3.23;;;3.00;;
45650;SDS011;31365;48.858;8.530;2024-01-06T09:56:16;4.30;;;3.17;;
45650;SDS011;31365;48.858;8.530;2024-01-06T09:58:45;2.70;;;2.50;;
45650;SDS011;31365;48.858;8.530;2024-01-06T10:01:13;2.93;;;2.73;;
45650;SDS011;31365;48.858;8.530;2024-01-06T10:03:44;2.57;;;2.47;;
45650;SDS011;31365;48.858;8.530;2024-01-06T10:06:13;3.90;;;3.60;;
45650;SDS011;31365;48.858;8.530;2024-01-06T10:08:42;3.10;;;2.90;;
45650;SDS011;31365;48.858;8.530;2024-01-06T10:11:10;2.83;;;2.63;;
45650;SDS011;31365;48.858;8.530;2024-01-06T10:13:39;5.23;;;3.53;;
45650;SDS011;31365;48.858;8.530;2024-01-06T10:16:07;2.83;;;2.63;;
45650;SDS011;31365;48.858;8.530;2024-01-06T10:18:37;2.80;;;2.60;;
45650;SDS011;31365;48.858;8.530;2024-01-06T10:21:08;2.93;;;2.60;;
45650;SDS011;31365;48.858;8.530;2024-01-06T10:23:36;3.30;;;2.70;;
45650;SDS011;31365;48.858;8.530;2024-01-06T10:26:05;5.70;;;5.30;;
45650;SDS011;31365;48.858;8.530;2024-01-06T10:28:33;3.00;;;2.80;;
45650;SDS011;31365;48.858;8.530;2024-01-06T10:31:02;2.83;;;2.63;;
45650;SDS011;31365;48.858;8.530;2024-01-06T10:33:31;3.10;;;2.90;;
45650;SDS011;31365;48.858;8.530;2024-01-06T10:36:00;3.80;;;2.97;;
45650;SDS011;31365;48.858;8.530;2024-01-06T10:38:32;3.80;;;3.37;;
45650;SDS011;31365;48.858;8.530;2024-01-06T10:41:02;4.53;;;4.00;;
45650;SDS011;31365;48.858;8.530;2024-01-06T10:43:34;4.63;;;4.20;;
45650;SDS011;31365;48.858;8.530;2024-01-06T10:46:06;4.27;;;3.87;;
45650;SDS011;31365;48.858;8.530;2024-01-06T10:48:37;4.30;;;4.00;;
45650;SDS011;31365;48.858;8.530;2024-01-06T10:51:10;3.93;;;3.57;;
45650;SDS011;31365;48.858;8.530;2024-01-06T10:53:43;4.10;;;3.70;;
45650;SDS011;31365;48.858;8.530;2024-01-06T10:56:11;4.30;;;3.90;;
45650;SDS011;31365;48.858;8.530;2024-01-06T10:58:39;6.83;;;5.83;;
45650;SDS011;31365;48.858;8.530;2024-01-06T11:01:15;5.63;;;4.97;;
45650;SDS011;31365;48.858;8.530;2024-01-06T11:03:53;7.70;;;7.00;;
45650;SDS011;31365;48.858;8.530;2024-01-06T11:06:22;6.70;;;6.00;;
45650;SDS011;31365;48.858;8.530;2024-01-06T11:08:57;5.73;;;4.70;;
45650;SDS011;31365;48.858;8.530;2024-01-06T11:11:32;6.47;;;5.80;;
45650;SDS011;31365;48.858;8.530;2024-01-06T11:14:18;6.17;;;5.57;;
45650;SDS011;31365;48.858;8.530;2024-01-06T11:16:50;7.07;;;6.37;;
45650;SDS011;31365;48.858;8.530;2024-01-06T11:22:19;5.20;;;4.80;;
45650;SDS011;31365;48.858;8.530;2024-01-06T11:24:55;5.23;;;4.80;;
45650;SDS011;31365;48.858;8.530;2024-01-06T11:27:31;5.50;;;5.00;;
45650;SDS011;31365;48.858;8.530;2024-01-06T11:30:01;5.27;;;4.87;;
45650;SDS011;31365;48.858;8.530;2024-01-06T11:32:33;4.90;;;4.50;;
45650;SDS011;31365;48.858;8.530;2024-01-06T11:35:05;4.40;;;4.10;;
45650;SDS011;31365;48.858;8.530;2024-01-06T11:37:37;4.30;;;4.00;;
45650;SDS011;31365;48.858;8.530;2024-01-06T11:40:25;4.67;;;4.17;;
45650;SDS011;31365;48.858;8.530;2024-01-06T11:43:03;4.50;;;4.10;;
45650;SDS011;31365;48.858;8.530;2024-01-06T11:45:34;4.30;;;4.00;;
45650;SDS011;31365;48.858;8.530;2024-01-06T11:48:05;4.43;;;3.93;;
45650;SDS011;31365;48.858;8.530;2024-01-06T11:50:35;4.57;;;4.17;;
45650;SDS011;31365;48.858;8.530;2024-01-06T11:53:06;6.53;;;4.70;;
45650;SDS011;31365;48.858;8.530;2024-01-06T11:55:39;5.07;;;3.97;;
45650;SDS011;31365;48.858;8.530;2024-01-06T11:58:09;4.13;;;3.77;;
45650;SDS011;31365;48.858;8.530;2024-01-06T12:00:37;4.83;;;4.43;;
45650;SDS011;31365;48.858;8.530;2024-01-06T12:03:07;4.97;;;4.53;;
45650;SDS011;31365;48.858;8.530;2024-01-06T12:05:36;9.80;;;7.37;;
45650;SDS011;31365;48.858;8.530;2024-01-06T12:08:05;8.47;;;7.07;;
45650;SDS011;31365;48.858;8.530;2024-01-06T12:10:34;13.33;;;8.30;;
45650;SDS011;31365;48.858;8.530;2024-01-06T12:13:05;13.37;;;8.83;;
45650;SDS011;31365;48.858;8.530;2024-01-06T12:15:38;6.90;;;6.20;;
45650;SDS011;31365;48.858;8.530;2024-01-06T12:18:07;7.53;;;5.03;;
45650;SDS011;31365;48.858;8.530;2024-01-06T12:20:36;4.70;;;4.30;;
45650;SDS011;31365;48.858;8.530;2024-01-06T12:23:04;6.37;;;5.63;;
45650;SDS011;31365;48.858;8.530;2024-01-06T12:25:34;4.73;;;4.33;;
45650;SDS011;31365;48.858;8.530;2024-01-06T12:28:07;6.13;;;5.30;;
45650;SDS011;31365;48.858;8.530;2024-01-06T12:30:35;4.73;;;4.23;;
45650;SDS011;31365;48.858;8.530;2024-01-06T12:33:06;6.57;;;4.17;;
45650;SDS011;31365;48.858;8.530;2024-01-06T12:35:35;5.40;;;4.20;;
45650;SDS011;31365;48.858;8.530;2024-01-06T12:38:04;4.70;;;3.73;;
45650;SDS011;31365;48.858;8.530;2024-01-06T12:40:35;4.43;;;4.03;;
45650;SDS011;31365;48.858;8.530;2024-01-06T12:43:04;4.40;;;4.10;;
45650;SDS011;31365;48.858;8.530;2024-01-06T12:45:35;4.07;;;3.77;;
45650;SDS011;31365;48.858;8.530;2024-01-06T12:48:03;3.83;;;3.53;;
45650;SDS011;31365;48.858;8.530;2024-01-06T12:50:32;3.60;;;3.40;;
45650;SDS011;31365;48.858;8.530;2024-01-06T12:53:00;3.20;;;3.00;;
45650;SDS011;31365;48.858;8.530;2024-01-06T12:55:28;3.50;;;3.30;;
45650;SDS011;31365;48.858;8.530;2024-01-06T12:57:57;3.50;;;3.30;;
45650;SDS011;31365;48.858;8.530;2024-01-06T13:00:27;3.73;;;3.43;;
45650;SDS011;31365;48.858;8.530;2024-01-06T13:03:01;6.17;;;5.57;;
45650;SDS011;31365;48.858;8.530;2024-01-06T13:05:30;12.10;;;9.67;;
45650;SDS011;31365;48.858;8.530;2024-01-06T13:07:59;16.57;;;13.50;;
45650;SDS011;31365;48.858;8.530;2024-01-06T13:10:28;3.87;;;3.57;;
45650;SDS011;31365;48.858;8.530;2024-01-06T13:12:56;3.60;;;3.30;;
45650;SDS011;31365;48.858;8.530;2024-01-06T13:15:25;3.20;;;3.00;;
45650;SDS011;31365;48.858;8.530;2024-01-06T13:17:54;3.40;;;3.20;;
45650;SDS011;31365;48.858;8.530;2024-01-06T13:20:25;3.47;;;3.27;;
45650;SDS011;31365;48.858;8.530;2024-01-06T13:22:53;3.73;;;3.53;;
45650;SDS011;31365;48.858;8.530;2024-01-06T13:25:22;5.17;;;4.63;;
45650;SDS011;31365;48.858;8.530;2024-01-06T13:27:50;6.87;;;6.27;;
45650;SDS011;31365;48.858;8.530;2024-01-06T13:30:19;8.47;;;7.77;;
45650;SDS011;31365;48.858;8.530;2024-01-06T13:32:47;6.63;;;6.03;;
45650;SDS011;31365;48.858;8.530;2024-01-06T13:35:17;4.70;;;4.30;;
45650;SDS011;31365;48.858;8.530;2024-01-06T13:37:47;3.57;;;3.33;;
45650;SDS011;31365;48.858;8.530;2024-01-06T13:40:17;4.33;;;3.93;;
45650;SDS011;31365;48.858;8.530;2024-01-06T13:42:47;5.30;;;4.47;;
45650;SDS011;31365;48.858;8.530;2024-01-06T13:45:15;4.57;;;4.27;;
45650;SDS011;31365;48.858;8.530;2024-01-06T13:47:44;4.00;;;3.73;;
45650;SDS011;31365;48.858;8.530;2024-01-06T13:50:13;4.40;;;4.10;;
45650;SDS011;31365;48.858;8.530;2024-01-06T13:52:44;5.37;;;4.87;;
45650;SDS011;31365;48.858;8.530;2024-01-06T13:55:14;4.53;;;4.13;;
45650;SDS011;31365;48.858;8.530;2024-01-06T13:57:42;4.27;;;3.90;;
45650;SDS011;31365;48.858;8.530;2024-01-06T14:00:10;4.67;;;4.30;;
45650;SDS011;31365;48.858;8.530;2024-01-06T14:02:46;9.63;;;8.17;;
45650;SDS011;31365;48.858;8.530;2024-01-06T14:05:15;6.10;;;4.40;;
45650;SDS011;31365;48.858;8.530;2024-01-06T14:07:43;8.17;;;7.23;;
45650;SDS011;31365;48.858;8.530;2024-01-06T14:10:16;11.03;;;9.03;;
45650;SDS011;31365;48.858;8.530;2024-01-06T14:12:44;9.33;;;8.33;;
45650;SDS011;31365;48.858;8.530;2024-01-06T14:15:13;11.10;;;9.47;;
45650;SDS011;31365;48.858;8.530;2024-01-06T14:17:41;5.20;;;4.70;;
45650;SDS011;31365;48.858;8.530;2024-01-06T14:20:15;5.00;;;4.60;;
45650;SDS011;31365;48.858;8.530;2024-01-06T14:22:44;5.10;;;4.67;;
45650;SDS011;31365;48.858;8.530;2024-01-06T14:25:14;5.57;;;5.07;;
45650;SDS011;31365;48.858;8.530;2024-01-06T14:27:45;4.83;;;3.97;;
45650;SDS011;31365;48.858;8.530;2024-01-06T14:30:14;7.00;;;6.40;;
45650;SDS011;31365;48.858;8.530;2024-01-06T14:32:42;4.17;;;3.70;;
45650;SDS011;31365;48.858;8.530;2024-01-06T14:35:11;4.37;;;4.00;;
45650;SDS011;31365;48.858;8.530;2024-01-06T14:37:41;5.10;;;4.67;;
45650;SDS011;31365;48.858;8.530;2024-01-06T14:40:11;5.03;;;4.63;;
45650;SDS011;31365;48.858;8.530;2024-01-06T14:42:41;4.30;;;4.00;;
45650;SDS011;31365;48.858;8.530;2024-01-06T14:45:10;4.50;;;4.20;;
45650;SDS011;31365;48.858;8.530;2024-01-06T14:47:38;4.20;;;3.90;;
45650;SDS011;31365;48.858;8.530;2024-01-06T14:50:08;3.33;;;3.13;;
45650;SDS011;31365;48.858;8.530;2024-01-06T14:52:36;6.03;;;5.43;;
45650;SDS011;31365;48.858;8.530;2024-01-06T14:55:05;7.37;;;6.67;;
45650;SDS011;31365;48.858;8.530;2024-01-06T14:57:34;6.37;;;4.27;;
45650;SDS011;31365;48.858;8.530;2024-01-06T15:00:04;5.93;;;5.47;;
45650;SDS011;31365;48.858;8.530;2024-01-06T15:02:36;4.93;;;4.47;;